createdAt,value
2024-03-06T00:00:16.557Z,16.02
2024-03-06T00:02:43.220Z,16.52
2024-03-06T00:05:10.329Z,14.18
2024-03-06T00:07:37.355Z,15.80
2024-03-06T00:10:06.506Z,24.08
2024-03-06T00:12:33.419Z,22.55
2024-03-06T00:15:00.217Z,16.80
2024-03-06T00:17:26.937Z,17.23
2024-03-06T00:19:53.767Z,15.27
2024-03-06T00:22:23.569Z,14.80
2024-03-06T00:24:50.845Z,14.48
2024-03-06T00:27:17.472Z,14.20
2024-03-06T00:29:44.082Z,15.80
2024-03-06T00:32:10.774Z,15.15
2024-03-06T00:34:37.977Z,15.07
2024-03-06T00:37:04.870Z,15.90
2024-03-06T00:39:31.490Z,15.52
2024-03-06T00:41:58.127Z,15.43
2024-03-06T00:44:24.689Z,14.68
2024-03-06T00:46:51.298Z,14.65
2024-03-06T00:49:17.911Z,13.88
2024-03-06T00:51:49.177Z,14.13
2024-03-06T00:54:17.446Z,16.30
2024-03-06T00:56:44.412Z,17.52
2024-03-06T00:59:11.844Z,17.80
2024-03-06T01:01:38.702Z,15.77
2024-03-06T01:04:05.764Z,16.92
2024-03-06T01:06:32.324Z,18.02
2024-03-06T01:08:59.668Z,17.88
2024-03-06T01:11:27.476Z,17.08
2024-03-06T01:13:55.506Z,17.27
2024-03-06T01:16:22.409Z,15.80
2024-03-06T01:18:49.061Z,15.48
2024-03-06T01:21:15.838Z,17.42
2024-03-06T01:23:42.392Z,14.88
2024-03-06T01:26:09.052Z,14.05
2024-03-06T01:28:35.718Z,14.45
2024-03-06T01:31:02.309Z,14.13
2024-03-06T01:33:28.959Z,13.38
2024-03-06T01:35:55.514Z,14.50
2024-03-06T01:38:22.786Z,14.95
2024-03-06T01:40:49.449Z,13.57
2024-03-06T01:43:23.991Z,15.65
2024-03-06T01:45:51.005Z,13.90
2024-03-06T01:48:20.866Z,14.27
2024-03-06T01:50:47.745Z,13.98
2024-03-06T01:53:16.873Z,14.10
2024-03-06T01:55:44.008Z,13.68
2024-03-06T01:58:10.796Z,13.70
2024-03-06T02:00:38.026Z,14.18
2024-03-06T02:03:04.847Z,13.93
2024-03-06T02:05:32.227Z,14.82
2024-03-06T02:08:00.410Z,15.20
2024-03-06T02:10:28.556Z,16.17
2024-03-06T02:12:55.916Z,16.88
2024-03-06T02:15:23.317Z,15.70
2024-03-06T02:17:50.424Z,15.30
2024-03-06T02:20:17.406Z,15.40
2024-03-06T02:22:44.407Z,14.70
2024-03-06T02:25:12.530Z,14.75
2024-03-06T02:27:39.103Z,14.85
2024-03-06T02:30:07.257Z,15.57
2024-03-06T02:32:33.957Z,14.60
2024-03-06T02:35:03.843Z,13.20
2024-03-06T02:37:30.679Z,13.85
2024-03-06T02:39:57.366Z,12.10
2024-03-06T02:42:23.992Z,11.68
2024-03-06T02:44:50.531Z,12.63
2024-03-06T02:47:17.151Z,11.93
2024-03-06T02:49:43.842Z,12.15
2024-03-06T02:52:10.494Z,13.38
2024-03-06T02:54:37.152Z,12.75
2024-03-06T02:57:03.870Z,12.85
2024-03-06T02:59:31.055Z,12.52
2024-03-06T03:01:57.851Z,13.65
2024-03-06T03:04:24.632Z,13.55
2024-03-06T03:06:52.113Z,20.63
2024-03-06T03:09:18.757Z,14.80
2024-03-06T03:11:45.533Z,14.55
2024-03-06T03:14:12.272Z,13.95
2024-03-06T03:16:39.017Z,13.35
2024-03-06T03:19:06.084Z,14.10
2024-03-06T03:21:33.448Z,13.40
2024-03-06T03:24:00.128Z,13.02
2024-03-06T03:26:26.758Z,14.27
2024-03-06T03:28:53.427Z,14.00
2024-03-06T03:31:20.017Z,15.27
2024-03-06T03:33:46.625Z,15.73
2024-03-06T03:36:13.208Z,15.93
2024-03-06T03:38:42.160Z,14.40
2024-03-06T03:41:10.419Z,15.57
2024-03-06T03:43:37.479Z,16.10
2024-03-06T03:46:05.475Z,15.88
2024-03-06T03:48:32.783Z,15.43
2024-03-06T03:50:59.409Z,14.75
2024-03-06T03:53:25.979Z,15.95
2024-03-06T03:55:52.595Z,14.57
2024-03-06T03:58:19.263Z,15.98
2024-03-06T04:00:46.162Z,14.18
2024-03-06T04:03:12.777Z,16.70
2024-03-06T04:05:40.505Z,15.80
2024-03-06T04:08:07.792Z,15.15
2024-03-06T04:10:34.900Z,15.30
2024-03-06T04:13:01.601Z,14.23
2024-03-06T04:15:28.169Z,15.75
2024-03-06T04:17:54.786Z,14.90
2024-03-06T04:20:21.481Z,15.80
2024-03-06T04:22:49.247Z,16.23
2024-03-06T04:25:15.944Z,16.58
2024-03-06T04:27:42.527Z,16.70
2024-03-06T04:30:10.346Z,16.52
2024-03-06T04:32:36.987Z,15.57
2024-03-06T04:35:04.031Z,15.88
2024-03-06T04:37:31.711Z,16.25
2024-03-06T04:39:58.563Z,15.40
2024-03-06T04:42:25.159Z,15.73
2024-03-06T04:44:51.783Z,15.35
2024-03-06T04:47:18.450Z,15.63
2024-03-06T04:49:45.155Z,17.08
2024-03-06T04:52:11.757Z,18.73
2024-03-06T04:54:38.689Z,17.90
2024-03-06T04:57:05.405Z,18.27
2024-03-06T04:59:31.984Z,19.23
2024-03-06T05:01:58.536Z,19.17
2024-03-06T05:59:11.732Z,20.48
2024-03-06T06:01:38.429Z,21.73
2024-03-06T06:04:07.891Z,16.95
2024-03-06T06:06:35.044Z,20.55
2024-03-06T06:09:01.866Z,19.13
2024-03-06T06:11:28.854Z,19.42
2024-03-06T06:13:55.550Z,16.98
2024-03-06T06:16:22.161Z,20.80
2024-03-06T06:18:48.795Z,19.08
2024-03-06T06:21:15.333Z,19.33
2024-03-06T06:23:42.025Z,19.77
2024-03-06T06:26:10.253Z,17.63
2024-03-06T06:28:38.162Z,17.08
2024-03-06T06:31:05.534Z,18.75
2024-03-06T06:33:32.107Z,18.42
2024-03-06T06:35:58.704Z,17.52
2024-03-06T06:38:25.277Z,14.63
2024-03-06T06:40:51.928Z,19.05
2024-03-06T06:43:18.591Z,18.40
2024-03-06T06:45:45.237Z,19.23
2024-03-06T06:48:11.883Z,18.98
2024-03-06T06:50:39.000Z,18.38
2024-03-06T06:53:05.957Z,16.05
2024-03-06T06:55:32.676Z,18.05
2024-03-06T06:57:59.330Z,20.38
2024-03-06T07:00:26.396Z,14.90
2024-03-06T07:02:53.059Z,12.32
2024-03-06T07:05:19.853Z,14.63
2024-03-06T07:07:47.059Z,17.67
2024-03-06T07:10:13.841Z,18.13
2024-03-06T07:12:40.487Z,14.07
2024-03-06T07:15:07.872Z,14.48
2024-03-06T07:17:34.860Z,14.32
2024-03-06T07:20:01.846Z,13.20
2024-03-06T07:22:28.603Z,15.98
2024-03-06T07:24:55.721Z,14.80
2024-03-06T07:27:22.273Z,16.15
2024-03-06T07:29:48.903Z,11.93
2024-03-06T07:32:15.681Z,16.27
2024-03-06T07:34:42.288Z,13.48
2024-03-06T07:37:08.979Z,14.68
2024-03-06T07:39:36.306Z,15.82
2024-03-06T07:42:03.677Z,16.80
2024-03-06T07:44:30.323Z,12.85
2024-03-06T07:46:57.113Z,14.77
2024-03-06T07:49:23.753Z,13.57
2024-03-06T07:51:51.636Z,13.73
2024-03-06T07:54:18.480Z,14.68
2024-03-06T07:56:45.248Z,12.93
2024-03-06T07:59:13.796Z,15.45
2024-03-06T08:01:41.502Z,14.65
2024-03-06T08:04:08.179Z,12.80
2024-03-06T08:06:34.836Z,15.15
2024-03-06T08:09:03.562Z,14.77
2024-03-06T08:11:30.748Z,14.50
2024-03-06T08:14:03.684Z,13.50
2024-03-06T08:16:33.702Z,14.93
2024-03-06T08:19:01.810Z,14.40
2024-03-06T08:21:29.084Z,12.50
2024-03-06T08:23:55.803Z,15.43
2024-03-06T08:26:24.059Z,12.10
2024-03-06T08:28:51.293Z,15.40
2024-03-06T08:31:17.865Z,13.77
2024-03-06T08:33:45.814Z,12.77
2024-03-06T08:36:12.637Z,14.18
2024-03-06T08:38:39.333Z,12.77
2024-03-06T08:41:06.668Z,13.95
2024-03-06T08:43:33.389Z,12.50
2024-03-06T08:46:00.011Z,13.98
2024-03-06T08:48:26.701Z,15.55
2024-03-06T08:50:53.976Z,14.85
2024-03-06T08:53:21.400Z,13.75
2024-03-06T08:55:48.336Z,11.88
2024-03-06T08:58:15.271Z,12.75
2024-03-06T09:00:41.997Z,13.20
2024-03-06T09:03:08.787Z,11.68
2024-03-06T09:05:35.519Z,11.38
2024-03-06T09:08:03.196Z,13.50
2024-03-06T09:10:30.402Z,11.52
2024-03-06T09:12:57.123Z,12.30
2024-03-06T09:15:24.056Z,11.05
2024-03-06T09:17:50.902Z,12.93
2024-03-06T09:20:17.827Z,9.73
2024-03-06T09:22:44.716Z,12.43
2024-03-06T09:25:15.260Z,9.55
2024-03-06T09:27:43.418Z,9.98
2024-03-06T09:30:10.795Z,7.32
2024-03-06T09:32:38.995Z,9.77
2024-03-06T09:35:07.138Z,10.18
2024-03-06T09:37:33.758Z,11.75
2024-03-06T09:40:00.432Z,10.43
2024-03-06T09:42:27.344Z,8.95
2024-03-06T09:44:54.132Z,9.25
2024-03-06T09:47:27.959Z,11.30
2024-03-06T09:49:55.266Z,8.75
2024-03-06T09:52:26.210Z,9.80
2024-03-06T09:54:55.876Z,7.97
2024-03-06T09:57:22.521Z,9.32
2024-03-06T09:59:49.201Z,11.15
2024-03-06T10:03:03.573Z,8.38
2024-03-06T10:05:32.002Z,9.43
2024-03-06T10:08:00.451Z,11.38
2024-03-06T10:10:27.855Z,10.13
2024-03-06T10:12:54.559Z,8.80
2024-03-06T10:15:22.588Z,8.13
2024-03-06T10:17:50.476Z,10.32
2024-03-06T10:20:24.857Z,9.38
2024-03-06T10:22:57.248Z,10.30
2024-03-06T10:25:27.069Z,9.38
2024-03-06T10:28:08.406Z,8.55
2024-03-06T10:30:36.916Z,7.18
2024-03-06T10:33:07.542Z,8.27
2024-03-06T10:35:34.863Z,8.57
2024-03-06T10:38:05.068Z,8.25
2024-03-06T10:40:37.844Z,10.07
2024-03-06T10:43:06.955Z,10.75
2024-03-06T10:45:39.481Z,11.35
2024-03-06T10:48:08.268Z,11.70
2024-03-06T10:50:36.648Z,9.45
2024-03-06T10:53:11.625Z,12.63
2024-03-06T10:55:38.589Z,11.32
2024-03-06T10:58:09.663Z,11.52
2024-03-06T11:00:47.283Z,12.43
2024-03-06T11:03:14.542Z,10.70
2024-03-06T11:05:42.247Z,12.32
2024-03-06T11:08:10.198Z,10.95
2024-03-06T11:10:39.096Z,11.88
2024-03-06T11:13:20.975Z,11.50
2024-03-06T11:15:59.060Z,11.57
2024-03-06T11:18:32.237Z,10.43
2024-03-06T11:21:05.152Z,11.07
2024-03-06T11:23:32.788Z,9.50
2024-03-06T11:26:11.402Z,9.65
2024-03-06T11:28:41.340Z,11.23
2024-03-06T11:31:19.817Z,10.68
2024-03-06T11:33:48.498Z,12.20
2024-03-06T11:36:19.777Z,12.05
2024-03-06T11:39:07.798Z,11.43
2024-03-06T11:41:43.715Z,10.93
2024-03-06T11:44:16.026Z,11.57
2024-03-06T11:46:49.989Z,10.93
2024-03-06T11:49:21.826Z,10.75
2024-03-06T11:51:49.739Z,11.10
2024-03-06T11:54:16.730Z,10.13
2024-03-06T11:56:48.487Z,11.47
2024-03-06T11:59:15.654Z,9.75
2024-03-06T12:01:42.884Z,11.43
2024-03-06T12:04:09.646Z,11.05
2024-03-06T12:06:36.377Z,11.52
2024-03-06T12:09:03.623Z,8.73
2024-03-06T12:11:32.132Z,9.48
2024-03-06T12:13:58.906Z,11.48
2024-03-06T12:16:25.500Z,11.20
2024-03-06T12:18:59.330Z,11.38
2024-03-06T12:21:31.791Z,9.90
2024-03-06T12:24:05.137Z,10.70
2024-03-06T12:26:32.392Z,9.70
2024-03-06T12:29:07.147Z,10.70
2024-03-06T12:31:36.254Z,9.65
2024-03-06T12:34:05.115Z,11.60
2024-03-06T12:36:32.736Z,11.75
2024-03-06T12:39:04.715Z,10.93
2024-03-06T12:41:31.515Z,8.57
2024-03-06T12:43:58.220Z,10.95
2024-03-06T12:46:25.279Z,10.70
2024-03-06T12:48:52.233Z,10.75
2024-03-06T12:51:18.961Z,12.13
2024-03-06T12:53:45.691Z,10.15
2024-03-06T12:56:12.653Z,12.30
2024-03-06T12:58:39.341Z,11.23
2024-03-06T13:01:06.699Z,11.73
2024-03-06T13:03:33.576Z,11.57
2024-03-06T13:06:00.486Z,11.52
2024-03-06T13:08:27.768Z,12.40
2024-03-06T13:10:54.562Z,13.02
2024-03-06T13:13:21.802Z,10.60
2024-03-06T13:15:49.638Z,10.70
2024-03-06T13:18:16.978Z,9.00
2024-03-06T13:20:44.716Z,10.88
2024-03-06T13:23:11.906Z,9.40
2024-03-06T13:25:38.713Z,9.38
2024-03-06T13:28:06.264Z,11.48
2024-03-06T13:30:33.296Z,16.48
2024-03-06T13:33:00.241Z,12.10
2024-03-06T13:35:27.096Z,10.52
2024-03-06T13:37:54.983Z,12.68
2024-03-06T13:40:21.698Z,11.98
2024-03-06T13:42:48.989Z,11.18
2024-03-06T13:45:15.867Z,11.02
2024-03-06T13:47:43.945Z,10.93
2024-03-06T13:50:12.610Z,11.57
2024-03-06T13:52:40.203Z,9.57
2024-03-06T13:55:07.849Z,10.07
2024-03-06T13:57:36.201Z,9.85
2024-03-06T14:00:07.928Z,8.77
2024-03-06T14:02:40.948Z,9.90
2024-03-06T14:05:08.125Z,8.73
2024-03-06T14:07:35.554Z,8.63
2024-03-06T14:10:06.149Z,9.65
2024-03-06T14:12:33.221Z,9.35
2024-03-06T14:14:59.801Z,10.43
2024-03-06T14:17:26.715Z,10.45
2024-03-06T14:19:53.356Z,9.63
2024-03-06T14:22:19.989Z,9.70
2024-03-06T14:24:46.585Z,10.45
2024-03-06T14:27:16.220Z,9.55
2024-03-06T14:29:43.999Z,9.02
2024-03-06T14:32:10.605Z,9.98
2024-03-06T14:34:37.711Z,9.70
2024-03-06T14:37:04.658Z,9.73
2024-03-06T14:39:31.492Z,9.68
2024-03-06T14:41:58.160Z,9.40
2024-03-06T14:44:24.806Z,10.48
2024-03-06T14:46:51.583Z,9.70
2024-03-06T14:49:18.434Z,9.80
2024-03-06T14:51:45.202Z,10.35
2024-03-06T14:54:11.868Z,9.50
2024-03-06T14:56:38.733Z,10.23
2024-03-06T14:59:05.502Z,10.02
2024-03-06T15:01:32.140Z,10.60
2024-03-06T15:03:59.566Z,10.07
2024-03-06T15:06:26.878Z,9.73
2024-03-06T15:08:54.085Z,10.80
2024-03-06T15:11:23.683Z,9.73
2024-03-06T15:13:50.356Z,10.10
2024-03-06T15:16:17.705Z,10.52
2024-03-06T15:18:44.996Z,9.57
2024-03-06T15:21:12.442Z,9.77
2024-03-06T15:23:39.477Z,10.25
2024-03-06T15:26:06.193Z,9.73
2024-03-06T15:28:33.033Z,10.95
2024-03-06T15:30:59.612Z,10.27
2024-03-06T15:33:26.755Z,10.40
2024-03-06T15:35:53.528Z,10.02
2024-03-06T15:38:21.693Z,10.32
2024-03-06T15:40:51.498Z,10.73
2024-03-06T15:43:18.697Z,10.05
2024-03-06T15:45:45.834Z,9.77
2024-03-06T15:48:15.017Z,10.82
2024-03-06T15:50:42.936Z,9.70
2024-03-06T15:53:10.009Z,11.02
2024-03-06T15:55:37.438Z,9.88
2024-03-06T15:58:04.692Z,10.68
2024-03-06T16:00:32.182Z,10.00
2024-03-06T16:02:59.522Z,10.88
2024-03-06T16:05:29.274Z,10.15
2024-03-06T16:08:05.391Z,11.25
2024-03-06T16:10:33.032Z,10.32
2024-03-06T16:12:59.597Z,10.50
2024-03-06T16:15:26.413Z,10.40
2024-03-06T16:17:53.194Z,10.50
2024-03-06T16:20:21.378Z,10.73
2024-03-06T16:22:48.108Z,10.65
2024-03-06T16:25:14.733Z,10.25
2024-03-06T16:27:41.351Z,10.00
2024-03-06T16:30:09.987Z,10.35
2024-03-06T16:32:36.866Z,10.00
2024-03-06T16:35:05.263Z,10.55
2024-03-06T16:37:31.982Z,10.25
2024-03-06T16:39:58.659Z,10.43
2024-03-06T16:42:25.280Z,15.85
2024-03-06T16:44:52.055Z,14.15
2024-03-06T16:47:18.847Z,12.60
2024-03-06T16:49:45.501Z,13.63
2024-03-06T16:52:14.317Z,12.13
2024-03-06T16:54:42.087Z,12.40
2024-03-06T16:57:11.827Z,11.18
2024-03-06T16:59:39.052Z,10.43
2024-03-06T17:02:06.380Z,10.93
2024-03-06T17:04:33.027Z,11.30
2024-03-06T17:07:00.444Z,12.60
2024-03-06T17:09:27.071Z,12.40
2024-03-06T17:11:53.910Z,12.57
2024-03-06T17:14:20.655Z,12.70
2024-03-06T17:16:47.228Z,11.00
2024-03-06T17:19:13.814Z,11.52
2024-03-06T17:21:40.506Z,12.18
2024-03-06T17:24:07.339Z,11.55
2024-03-06T17:26:39.053Z,14.00
2024-03-06T17:29:06.649Z,12.90
2024-03-06T17:31:36.133Z,11.68
2024-03-06T17:34:03.432Z,11.50
2024-03-06T17:36:31.856Z,11.70
2024-03-06T17:38:59.049Z,11.57
2024-03-06T17:41:25.741Z,11.55
2024-03-06T17:43:52.362Z,12.00
2024-03-06T17:46:18.975Z,11.95
2024-03-06T17:48:45.665Z,11.18
2024-03-06T17:51:12.379Z,11.40
2024-03-06T17:53:39.089Z,11.35
2024-03-06T17:56:06.232Z,10.65
2024-03-06T17:58:32.830Z,11.48
2024-03-06T18:01:01.092Z,11.20
2024-03-06T18:03:27.789Z,10.25
2024-03-06T18:05:54.466Z,10.50
2024-03-06T18:08:21.127Z,11.63
2024-03-06T18:10:47.817Z,11.05
2024-03-06T18:13:14.501Z,10.98
2024-03-06T18:15:41.084Z,11.57
2024-03-06T18:18:07.848Z,11.13
2024-03-06T18:20:34.608Z,11.75
2024-03-06T18:23:01.350Z,11.38
2024-03-06T18:25:29.996Z,11.38
2024-03-06T18:27:56.923Z,11.40
2024-03-06T18:30:23.620Z,11.27
2024-03-06T18:32:50.799Z,11.32
2024-03-06T18:35:17.505Z,11.60
2024-03-06T18:37:44.151Z,11.13
2024-03-06T18:40:13.785Z,11.20
2024-03-06T18:42:41.048Z,10.93
2024-03-06T18:45:11.159Z,11.02
2024-03-06T18:47:38.004Z,10.75
2024-03-06T18:50:05.665Z,10.65
2024-03-06T18:52:32.814Z,12.00
2024-03-06T18:54:59.452Z,11.30
2024-03-06T18:57:27.326Z,10.73
2024-03-06T18:59:55.036Z,10.45
2024-03-06T19:02:21.919Z,12.13
2024-03-06T19:04:48.738Z,11.38
2024-03-06T19:07:19.915Z,11.93
2024-03-06T19:09:46.737Z,11.85
2024-03-06T19:12:13.614Z,11.65
2024-03-06T19:14:40.699Z,11.52
2024-03-06T19:17:08.020Z,12.82
2024-03-06T19:19:35.024Z,12.38
2024-03-06T19:22:01.789Z,11.57
2024-03-06T19:24:29.024Z,11.25
2024-03-06T19:26:56.862Z,11.77
2024-03-06T19:29:24.754Z,11.80
2024-03-06T19:31:51.426Z,12.60
2024-03-06T19:34:18.603Z,13.00
2024-03-06T19:36:47.876Z,12.38
2024-03-06T19:39:15.454Z,12.75
2024-03-06T19:41:42.074Z,13.00
2024-03-06T19:44:09.263Z,12.38
2024-03-06T19:46:36.211Z,12.50
2024-03-06T19:49:02.894Z,12.55
2024-03-06T19:51:29.517Z,12.98
2024-03-06T19:53:57.053Z,13.13
2024-03-06T19:56:25.275Z,12.52
2024-03-06T19:58:52.290Z,12.40
2024-03-06T20:01:20.009Z,12.90
2024-03-06T20:03:46.658Z,14.13
2024-03-06T20:06:13.305Z,13.88
2024-03-06T20:08:40.027Z,13.48
2024-03-06T20:11:08.140Z,14.65
2024-03-06T20:13:35.243Z,13.07
2024-03-06T20:16:01.922Z,13.38
2024-03-06T20:18:28.747Z,18.75
2024-03-06T20:20:55.772Z,17.02
2024-03-06T20:23:22.648Z,16.08
2024-03-06T20:25:49.276Z,14.77
2024-03-06T20:28:16.045Z,15.23
2024-03-06T20:30:43.824Z,14.48
2024-03-06T20:33:11.611Z,14.10
2024-03-06T20:35:38.552Z,14.85
2024-03-06T20:38:05.422Z,15.13
2024-03-06T20:40:33.375Z,14.95
2024-03-06T20:43:00.084Z,14.65
2024-03-06T20:45:26.761Z,15.38
2024-03-06T20:47:59.616Z,14.30
2024-03-06T20:50:26.926Z,15.95
2024-03-06T20:52:53.636Z,15.23
2024-03-06T20:55:20.212Z,14.38
2024-03-06T20:57:46.842Z,14.75
2024-03-06T21:00:14.645Z,15.50
2024-03-06T21:02:41.316Z,14.77
2024-03-06T21:05:08.680Z,14.18
2024-03-06T21:07:36.101Z,14.80
2024-03-06T21:10:03.232Z,14.32
2024-03-06T21:12:31.925Z,14.77
2024-03-06T21:14:59.392Z,13.98
2024-03-06T21:17:26.542Z,14.48
2024-03-06T21:19:54.042Z,14.57
2024-03-06T21:22:24.438Z,13.68
2024-03-06T21:24:51.921Z,14.15
2024-03-06T21:27:19.480Z,14.40
2024-03-06T21:29:47.228Z,13.95
2024-03-06T21:32:14.117Z,14.25
2024-03-06T21:34:43.836Z,14.55
2024-03-06T21:37:10.786Z,14.50
2024-03-06T21:39:37.875Z,14.15
2024-03-06T21:42:05.020Z,14.98
2024-03-06T21:44:32.859Z,14.75
2024-03-06T21:46:59.722Z,15.35
2024-03-06T21:49:31.950Z,15.35
2024-03-06T21:52:00.204Z,14.85
2024-03-06T21:54:26.869Z,14.75
2024-03-06T21:56:56.762Z,15.32
2024-03-06T21:59:24.056Z,15.77
2024-03-06T22:01:50.698Z,15.00
2024-03-06T22:04:17.550Z,15.68
2024-03-06T22:06:44.866Z,15.45
2024-03-06T22:09:11.848Z,16.35
2024-03-06T22:11:44.197Z,16.95
2024-03-06T22:14:11.548Z,16.33
2024-03-06T22:16:38.770Z,16.10
2024-03-06T22:19:06.545Z,15.73
2024-03-06T22:21:33.469Z,15.32
2024-03-06T22:24:00.645Z,15.05
2024-03-06T22:26:27.321Z,16.10
2024-03-06T22:28:54.156Z,15.82
2024-03-06T22:31:20.863Z,15.60
2024-03-06T22:33:47.511Z,15.40
2024-03-06T22:36:18.218Z,15.25
2024-03-06T22:38:48.843Z,15.38
2024-03-06T22:41:19.975Z,15.75
2024-03-06T22:43:46.792Z,15.60
2024-03-06T22:46:13.682Z,15.00
2024-03-06T22:48:40.417Z,15.38
2024-03-06T22:51:07.294Z,14.80
2024-03-06T22:53:33.922Z,14.95
2024-03-06T22:56:00.605Z,14.05
2024-03-06T22:58:27.217Z,14.50
2024-03-06T23:00:54.067Z,15.40
2024-03-06T23:03:22.382Z,14.80
2024-03-06T23:05:49.321Z,14.75
2024-03-06T23:08:16.382Z,15.88
2024-03-06T23:10:44.152Z,15.80
2024-03-06T23:13:15.903Z,15.50
2024-03-06T23:15:43.649Z,15.48
2024-03-06T23:18:13.799Z,15.05
2024-03-06T23:20:40.849Z,14.98
2024-03-06T23:23:07.706Z,14.13
2024-03-06T23:25:34.611Z,15.25
2024-03-06T23:28:02.352Z,15.70
2024-03-06T23:30:29.161Z,14.18
2024-03-06T23:32:56.070Z,15.65
2024-03-06T23:35:22.979Z,14.90
2024-03-06T23:37:50.280Z,14.32
2024-03-06T23:40:17.364Z,14.85
2024-03-06T23:42:45.443Z,15.95
2024-03-06T23:45:14.180Z,14.90
2024-03-06T23:47:42.878Z,14.77
2024-03-06T23:50:10.958Z,14.80
2024-03-06T23:52:38.657Z,14.95
2024-03-06T23:55:11.260Z,16.08
2024-03-06T23:57:38.022Z,15.13
